sensor_id;sensor_type;location;lat;lon;timestamp;pressure;altitude;pressure_sealevel;temperature;humidity
19827;BME280;10074;52.018;4.726;2023-04-01T00:04:04;46399.72;;;-144.79;100.00
19827;BME280;10074;52.018;4.726;2023-04-01T00:09:04;46387.69;;;-144.79;100.00
19827;BME280;10074;52.018;4.726;2023-04-01T00:14:06;46391.69;;;-144.79;100.00
19827;BME280;10074;52.018;4.726;2023-04-01T00:19:06;46383.66;;;-144.79;100.00
19827;BME280;10074;52.018;4.726;2023-04-01T00:24:07;46391.69;;;-144.79;100.00
19827;BME280;10074;52.018;4.726;2023-04-01T00:29:07;46387.69;;;-144.79;100.00
19827;BME280;10074;52.018;4.726;2023-04-01T00:34:09;46391.69;;;-144.79;100.00
19827;BME280;10074;52.018;4.726;2023-04-01T00:39:10;46389.69;;;-144.79;100.00
19827;BME280;10074;52.018;4.726;2023-04-01T00:44:21;46389.69;;;-144.79;100.00
19827;BME280;10074;52.018;4.726;2023-04-01T00:49:26;46391.69;;;-144.79;100.00
19827;BME280;10074;52.018;4.726;2023-04-01T00:54:30;46377.66;;;-144.79;100.00
19827;BME280;10074;52.018;4.726;2023-04-01T00:59:35;46387.69;;;-144.79;100.00
19827;BME280;10074;52.018;4.726;2023-04-01T01:04:37;46381.66;;;-144.79;100.00
19827;BME280;10074;52.018;4.726;2023-04-01T01:15:23;46385.69;;;-144.79;100.00
19827;BME280;10074;52.018;4.726;2023-04-01T01:20:42;46377.66;;;-144.79;100.00
19827;BME280;10074;52.018;4.726;2023-04-01T01:31:29;46391.69;;;-144.79;100.00
19827;BME280;10074;52.018;4.726;2023-04-01T01:36:33;46381.66;;;-144.79;100.00
19827;BME280;10074;52.018;4.726;2023-04-01T01:41:37;46379.66;;;-144.79;100.00
19827;BME280;10074;52.018;4.726;2023-04-01T01:46:41;46379.66;;;-144.79;100.00
19827;BME280;10074;52.018;4.726;2023-04-01T01:51:42;46377.66;;;-144.79;100.00
19827;BME280;10074;52.018;4.726;2023-04-01T01:56:46;46377.66;;;-144.79;100.00
19827;BME280;10074;52.018;4.726;2023-04-01T02:01:52;46381.66;;;-144.79;100.00
19827;BME280;10074;52.018;4.726;2023-04-01T02:06:59;46375.66;;;-144.79;100.00
19827;BME280;10074;52.018;4.726;2023-04-01T02:12:08;46379.66;;;-144.79;100.00
19827;BME280;10074;52.018;4.726;2023-04-01T02:17:16;46377.66;;;-144.79;100.00
19827;BME280;10074;52.018;4.726;2023-04-01T02:22:23;46375.66;;;-144.79;100.00
19827;BME280;10074;52.018;4.726;2023-04-01T02:27:24;46375.66;;;-144.79;100.00
19827;BME280;10074;52.018;4.726;2023-04-01T02:32:26;46367.63;;;-144.79;100.00
19827;BME280;10074;52.018;4.726;2023-04-01T02:37:27;46371.63;;;-144.79;100.00
19827;BME280;10074;52.018;4.726;2023-04-01T02:42:28;46369.63;;;-144.79;100.00
19827;BME280;10074;52.018;4.726;2023-04-01T02:47:28;46367.63;;;-144.79;100.00
19827;BME280;10074;52.018;4.726;2023-04-01T02:52:30;46365.63;;;-144.79;100.00
19827;BME280;10074;52.018;4.726;2023-04-01T02:57:31;46361.63;;;-144.79;100.00
19827;BME280;10074;52.018;4.726;2023-04-01T03:02:31;46359.59;;;-144.79;100.00
19827;BME280;10074;52.018;4.726;2023-04-01T03:07:31;46363.63;;;-144.79;100.00
19827;BME280;10074;52.018;4.726;2023-04-01T03:12:32;46367.63;;;-144.79;100.00
19827;BME280;10074;52.018;4.726;2023-04-01T03:17:32;46355.59;;;-144.79;100.00
19827;BME280;10074;52.018;4.726;2023-04-01T03:22:33;46355.59;;;-144.79;100.00
19827;BME280;10074;52.018;4.726;2023-04-01T03:27:34;46359.59;;;-144.79;100.00
19827;BME280;10074;52.018;4.726;2023-04-01T03:32:37;46351.59;;;-144.79;100.00
19827;BME280;10074;52.018;4.726;2023-04-01T03:37:37;46355.59;;;-144.79;100.00
19827;BME280;10074;52.018;4.726;2023-04-01T03:42:38;46355.59;;;-144.79;100.00
19827;BME280;10074;52.018;4.726;2023-04-01T03:47:38;46359.59;;;-144.79;100.00
19827;BME280;10074;52.018;4.726;2023-04-01T03:52:39;46357.59;;;-144.79;100.00
19827;BME280;10074;52.018;4.726;2023-04-01T03:57:40;46351.59;;;-144.79;100.00
19827;BME280;10074;52.018;4.726;2023-04-01T04:02:40;46349.59;;;-144.79;100.00
19827;BME280;10074;52.018;4.726;2023-04-01T04:07:40;46347.56;;;-144.79;100.00
19827;BME280;10074;52.018;4.726;2023-04-01T04:12:41;46347.56;;;-144.79;100.00
19827;BME280;10074;52.018;4.726;2023-04-01T04:17:41;46343.56;;;-144.79;100.00
19827;BME280;10074;52.018;4.726;2023-04-01T04:22:42;46349.59;;;-144.79;100.00
19827;BME280;10074;52.018;4.726;2023-04-01T04:27:42;46341.56;;;-144.79;100.00
19827;BME280;10074;52.018;4.726;2023-04-01T04:32:42;46343.56;;;-144.79;100.00
19827;BME280;10074;52.018;4.726;2023-04-01T04:37:43;46345.56;;;-144.79;100.00
19827;BME280;10074;52.018;4.726;2023-04-01T04:42:43;46341.56;;;-144.79;100.00
19827;BME280;10074;52.018;4.726;2023-04-01T04:47:44;46347.56;;;-144.79;100.00
19827;BME280;10074;52.018;4.726;2023-04-01T04:52:44;46347.56;;;-144.79;100.00
19827;BME280;10074;52.018;4.726;2023-04-01T04:57:44;46343.56;;;-144.79;100.00
19827;BME280;10074;52.018;4.726;2023-04-01T05:02:46;46341.56;;;-144.79;100.00
19827;BME280;10074;52.018;4.726;2023-04-01T05:07:46;46347.56;;;-144.79;100.00
19827;BME280;10074;52.018;4.726;2023-04-01T05:12:47;46345.56;;;-144.79;100.00
19827;BME280;10074;52.018;4.726;2023-04-01T05:17:47;46345.56;;;-144.79;100.00
19827;BME280;10074;52.018;4.726;2023-04-01T05:22:48;46341.56;;;-144.79;100.00
19827;BME280;10074;52.018;4.726;2023-04-01T05:27:48;46347.56;;;-144.79;100.00
19827;BME280;10074;52.018;4.726;2023-04-01T05:32:49;46345.56;;;-144.79;100.00
19827;BME280;10074;52.018;4.726;2023-04-01T05:37:49;46343.56;;;-144.79;100.00
19827;BME280;10074;52.018;4.726;2023-04-01T05:42:50;46339.56;;;-144.79;100.00
19827;BME280;10074;52.018;4.726;2023-04-01T05:47:51;46343.56;;;-144.79;100.00
19827;BME280;10074;52.018;4.726;2023-04-01T05:52:52;46341.56;;;-144.79;100.00
19827;BME280;10074;52.018;4.726;2023-04-01T05:57:52;46345.56;;;-144.79;100.00
19827;BME280;10074;52.018;4.726;2023-04-01T06:02:52;46333.53;;;-144.79;100.00
19827;BME280;10074;52.018;4.726;2023-04-01T06:07:58;46335.53;;;-144.79;100.00
19827;BME280;10074;52.018;4.726;2023-04-01T06:13:12;46337.56;;;-144.79;100.00
19827;BME280;10074;52.018;4.726;2023-04-01T06:18:27;46337.56;;;-144.79;100.00
19827;BME280;10074;52.018;4.726;2023-04-01T06:23:51;46331.53;;;-144.79;100.00
19827;BME280;10074;52.018;4.726;2023-04-01T06:29:20;46323.53;;;-144.79;100.00
19827;BME280;10074;52.018;4.726;2023-04-01T06:45:10;46319.50;;;-144.79;100.00
19827;BME280;10074;52.018;4.726;2023-04-01T06:55:55;46315.50;;;-144.79;100.00
19827;BME280;10074;52.018;4.726;2023-04-01T07:01:04;46327.53;;;-144.79;100.00
19827;BME280;10074;52.018;4.726;2023-04-01T07:06:25;46327.53;;;-144.79;100.00
19827;BME280;10074;52.018;4.726;2023-04-01T07:11:34;46327.53;;;-144.79;100.00
19827;BME280;10074;52.018;4.726;2023-04-01T07:16:44;46327.53;;;-144.79;100.00
19827;BME280;10074;52.018;4.726;2023-04-01T07:21:58;46325.53;;;-144.79;100.00
19827;BME280;10074;52.018;4.726;2023-04-01T07:27:00;46327.53;;;-144.79;100.00
19827;BME280;10074;52.018;4.726;2023-04-01T07:53:56;46327.53;;;-144.79;100.00
19827;BME280;10074;52.018;4.726;2023-04-01T08:04:22;46323.53;;;-144.79;100.00
19827;BME280;10074;52.018;4.726;2023-04-01T08:09:51;46357.59;;;-144.79;100.00
19827;BME280;10074;52.018;4.726;2023-04-01T08:25:39;46331.53;;;-144.79;100.00
19827;BME280;10074;52.018;4.726;2023-04-01T08:30:43;46341.56;;;-144.79;100.00
19827;BME280;10074;52.018;4.726;2023-04-01T08:40:55;46331.53;;;-144.79;100.00
19827;BME280;10074;52.018;4.726;2023-04-01T08:46:19;46327.53;;;-144.79;100.00
19827;BME280;10074;52.018;4.726;2023-04-01T08:56:57;46335.53;;;-144.79;100.00
19827;BME280;10074;52.018;4.726;2023-04-01T09:02:24;46329.53;;;-144.79;100.00
19827;BME280;10074;52.018;4.726;2023-04-01T09:18:54;46335.53;;;-144.79;100.00
19827;BME280;10074;52.018;4.726;2023-04-01T09:24:32;46327.53;;;-144.79;100.00
19827;BME280;10074;52.018;4.726;2023-04-01T09:41:30;46301.47;;;-144.79;100.00
19827;BME280;10074;52.018;4.726;2023-04-01T10:14:29;46291.44;;;-144.79;100.00
19827;BME280;10074;52.018;4.726;2023-04-01T10:20:00;46299.47;;;-144.79;100.00
19827;BME280;10074;52.018;4.726;2023-04-01T10:52:52;46315.50;;;-144.79;100.00
19827;BME280;10074;52.018;4.726;2023-04-01T11:04:09;46319.50;;;-144.79;100.00
19827;BME280;10074;52.018;4.726;2023-04-01T11:10:25;46319.50;;;-144.79;100.00
19827;BME280;10074;52.018;4.726;2023-04-01T11:31:58;46295.44;;;-144.79;100.00
19827;BME280;10074;52.018;4.726;2023-04-01T11:53:33;46315.50;;;-144.79;100.00
19827;BME280;10074;52.018;4.726;2023-04-01T12:09:35;46319.50;;;-144.79;100.00
19827;BME280;10074;52.018;4.726;2023-04-01T12:14:47;46317.50;;;-144.79;100.00
19827;BME280;10074;52.018;4.726;2023-04-01T12:31:21;46307.47;;;-144.79;100.00
19827;BME280;10074;52.018;4.726;2023-04-01T12:36:37;46317.50;;;-144.79;100.00
19827;BME280;10074;52.018;4.726;2023-04-01T12:41:48;46317.50;;;-144.79;100.00
19827;BME280;10074;52.018;4.726;2023-04-01T13:08:07;46319.50;;;-144.79;100.00
19827;BME280;10074;52.018;4.726;2023-04-01T13:18:29;46323.53;;;-144.79;100.00
19827;BME280;10074;52.018;4.726;2023-04-01T13:24:00;46323.53;;;-144.79;100.00
19827;BME280;10074;52.018;4.726;2023-04-01T13:29:12;46331.53;;;-144.79;100.00
19827;BME280;10074;52.018;4.726;2023-04-01T13:39:57;46323.53;;;-144.79;100.00
19827;BME280;10074;52.018;4.726;2023-04-01T13:45:14;46321.50;;;-144.79;100.00
19827;BME280;10074;52.018;4.726;2023-04-01T13:50:37;46325.53;;;-144.79;100.00
19827;BME280;10074;52.018;4.726;2023-04-01T13:56:24;46319.50;;;-144.79;100.00
19827;BME280;10074;52.018;4.726;2023-04-01T14:01:40;46319.50;;;-144.79;100.00
19827;BME280;10074;52.018;4.726;2023-04-01T14:12:24;46323.53;;;-144.79;100.00
19827;BME280;10074;52.018;4.726;2023-04-01T14:22:39;46331.53;;;-144.79;100.00
19827;BME280;10074;52.018;4.726;2023-04-01T14:28:03;46327.53;;;-144.79;100.00
19827;BME280;10074;52.018;4.726;2023-04-01T14:44:33;46323.53;;;-144.79;100.00
19827;BME280;10074;52.018;4.726;2023-04-01T14:49:39;46337.56;;;-144.79;100.00
19827;BME280;10074;52.018;4.726;2023-04-01T14:54:46;46335.53;;;-144.79;100.00
19827;BME280;10074;52.018;4.726;2023-04-01T14:59:51;46327.53;;;-144.79;100.00
19827;BME280;10074;52.018;4.726;2023-04-01T15:04:58;46331.53;;;-144.79;100.00
19827;BME280;10074;52.018;4.726;2023-04-01T15:21:31;46325.53;;;-144.79;100.00
19827;BME280;10074;52.018;4.726;2023-04-01T15:37:02;46343.56;;;-144.79;100.00
19827;BME280;10074;52.018;4.726;2023-04-01T15:42:19;46343.56;;;-144.79;100.00
19827;BME280;10074;52.018;4.726;2023-04-01T16:19:33;46325.53;;;-144.79;100.00
19827;BME280;10074;52.018;4.726;2023-04-01T16:41:49;46323.53;;;-144.79;100.00
19827;BME280;10074;52.018;4.726;2023-04-01T16:46:33;46325.53;;;-144.79;100.00
19827;BME280;10074;52.018;4.726;2023-04-01T16:51:53;46333.53;;;-144.79;100.00
19827;BME280;10074;52.018;4.726;2023-04-01T17:02:14;46337.56;;;-144.79;100.00
19827;BME280;10074;52.018;4.726;2023-04-01T17:17:58;46345.56;;;-144.79;100.00
19827;BME280;10074;52.018;4.726;2023-04-01T17:28:46;46331.53;;;-144.79;100.00
19827;BME280;10074;52.018;4.726;2023-04-01T17:39:30;46335.53;;;-144.79;100.00
19827;BME280;10074;52.018;4.726;2023-04-01T17:44:36;46349.59;;;-144.79;100.00
19827;BME280;10074;52.018;4.726;2023-04-01T17:49:42;46347.56;;;-144.79;100.00
19827;BME280;10074;52.018;4.726;2023-04-01T17:55:25;46351.59;;;-144.79;100.00
19827;BME280;10074;52.018;4.726;2023-04-01T18:06:08;46345.56;;;-144.79;100.00
19827;BME280;10074;52.018;4.726;2023-04-01T18:16:47;46357.59;;;-144.79;100.00
19827;BME280;10074;52.018;4.726;2023-04-01T18:21:55;46355.59;;;-144.79;100.00
19827;BME280;10074;52.018;4.726;2023-04-01T18:27:10;46361.63;;;-144.79;100.00
19827;BME280;10074;52.018;4.726;2023-04-01T18:32:35;46359.59;;;-144.79;100.00
19827;BME280;10074;52.018;4.726;2023-04-01T18:37:42;46351.59;;;-144.79;100.00
19827;BME280;10074;52.018;4.726;2023-04-01T18:42:53;46345.56;;;-144.79;100.00
19827;BME280;10074;52.018;4.726;2023-04-01T18:53:35;46347.56;;;-144.79;100.00
19827;BME280;10074;52.018;4.726;2023-04-01T18:59:04;46351.59;;;-144.79;100.00
19827;BME280;10074;52.018;4.726;2023-04-01T19:04:12;46357.59;;;-144.79;100.00
19827;BME280;10074;52.018;4.726;2023-04-01T19:09:26;46349.59;;;-144.79;100.00
19827;BME280;10074;52.018;4.726;2023-04-01T19:14:48;46351.59;;;-144.79;100.00
19827;BME280;10074;52.018;4.726;2023-04-01T19:20:03;46349.59;;;-144.79;100.00
19827;BME280;10074;52.018;4.726;2023-04-01T19:25:27;46345.56;;;-144.79;100.00
19827;BME280;10074;52.018;4.726;2023-04-01T19:30:41;46349.59;;;-144.79;100.00
19827;BME280;10074;52.018;4.726;2023-04-01T19:35:48;46349.59;;;-144.79;100.00
19827;BME280;10074;52.018;4.726;2023-04-01T19:46:18;46347.56;;;-144.79;100.00
19827;BME280;10074;52.018;4.726;2023-04-01T19:52:29;46349.59;;;-144.79;100.00
19827;BME280;10074;52.018;4.726;2023-04-01T19:57:26;46343.56;;;-144.79;100.00
19827;BME280;10074;52.018;4.726;2023-04-01T20:02:39;46349.59;;;-144.79;100.00
19827;BME280;10074;52.018;4.726;2023-04-01T20:07:54;46343.56;;;-144.79;100.00
19827;BME280;10074;52.018;4.726;2023-04-01T20:13:06;46347.56;;;-144.79;100.00
19827;BME280;10074;52.018;4.726;2023-04-01T20:18:23;46341.56;;;-144.79;100.00
19827;BME280;10074;52.018;4.726;2023-04-01T20:23:43;46347.56;;;-144.79;100.00
19827;BME280;10074;52.018;4.726;2023-04-01T21:01:25;46343.56;;;-144.79;100.00
19827;BME280;10074;52.018;4.726;2023-04-01T21:06:36;46349.59;;;-144.79;100.00
19827;BME280;10074;52.018;4.726;2023-04-01T21:18:04;46337.56;;;-144.79;100.00
19827;BME280;10074;52.018;4.726;2023-04-01T21:23:10;46339.56;;;-144.79;100.00
19827;BME280;10074;52.018;4.726;2023-04-01T21:28:35;46333.53;;;-144.79;100.00
19827;BME280;10074;52.018;4.726;2023-04-01T21:33:48;46345.56;;;-144.79;100.00
19827;BME280;10074;52.018;4.726;2023-04-01T21:39:12;46343.56;;;-144.79;100.00
19827;BME280;10074;52.018;4.726;2023-04-01T22:00:17;46337.56;;;-144.79;100.00
19827;BME280;10074;52.018;4.726;2023-04-01T22:05:39;46335.53;;;-144.79;100.00
19827;BME280;10074;52.018;4.726;2023-04-01T22:10:49;46333.53;;;-144.79;100.00
19827;BME280;10074;52.018;4.726;2023-04-01T22:16:18;46333.53;;;-144.79;100.00
19827;BME280;10074;52.018;4.726;2023-04-01T22:32:28;46327.53;;;-144.79;100.00
19827;BME280;10074;52.018;4.726;2023-04-01T22:37:13;46333.53;;;-144.79;100.00
19827;BME280;10074;52.018;4.726;2023-04-01T22:42:22;46329.53;;;-144.79;100.00
19827;BME280;10074;52.018;4.726;2023-04-01T22:47:51;46327.53;;;-144.79;100.00
19827;BME280;10074;52.018;4.726;2023-04-01T22:53:31;46331.53;;;-144.79;100.00
19827;BME280;10074;52.018;4.726;2023-04-01T22:58:43;46327.53;;;-144.79;100.00
19827;BME280;10074;52.018;4.726;2023-04-01T23:03:49;46325.53;;;-144.79;100.00
19827;BME280;10074;52.018;4.726;2023-04-01T23:08:55;46327.53;;;-144.79;100.00
19827;BME280;10074;52.018;4.726;2023-04-01T23:19:40;46325.53;;;-144.79;100.00
19827;BME280;10074;52.018;4.726;2023-04-01T23:24:46;46321.50;;;-144.79;100.00
19827;BME280;10074;52.018;4.726;2023-04-01T23:29:48;46323.53;;;-144.79;100.00
19827;BME280;10074;52.018;4.726;2023-04-01T23:34:51;46319.50;;;-144.79;100.00
19827;BME280;10074;52.018;4.726;2023-04-01T23:39:54;46323.53;;;-144.79;100.00
19827;BME280;10074;52.018;4.726;2023-04-01T23:45:02;46321.50;;;-144.79;100.00
19827;BME280;10074;52.018;4.726;2023-04-01T23:50:09;46319.50;;;-144.79;100.00
